createdAt,value
2018-12-25T00:00:09.623Z,-1.04
2018-12-25T00:01:09.586Z,-1.04
2018-12-25T00:02:09.594Z,-1.01
2018-12-25T00:03:09.659Z,-1
2018-12-25T00:04:09.566Z,-1.02
2018-12-25T00:05:09.622Z,-1.05
2018-12-25T00:06:09.808Z,-1.1
2018-12-25T00:07:09.578Z,-1.09
2018-12-25T00:08:09.570Z,-1.13
2018-12-25T00:09:09.665Z,-1.1
2018-12-25T00:10:09.582Z,-1.1
2018-12-25T00:11:09.581Z,-1.09
2018-12-25T00:12:09.649Z,-1.09
2018-12-25T00:13:09.527Z,-1.13
2018-12-25T00:14:09.580Z,-1.06
2018-12-25T00:15:09.704Z,-1.11
2018-12-25T00:16:09.573Z,-1.13
2018-12-25T00:17:09.613Z,-1.06
2018-12-25T00:18:09.559Z,-1.16
2018-12-25T00:19:09.566Z,-1.07
2018-12-25T00:20:09.544Z,-1.03
2018-12-25T00:21:09.580Z,-1.02
2018-12-25T00:22:09.334Z,-1.07
2018-12-25T00:23:09.801Z,-1.11
2018-12-25T00:24:09.687Z,-1.11
2018-12-25T00:25:09.530Z,-1.13
2018-12-25T00:26:10.345Z,-1.11
2018-12-25T00:27:09.771Z,-1.15
2018-12-25T00:28:09.696Z,-1.11
2018-12-25T00:29:09.866Z,-1.1
2018-12-25T00:30:09.638Z,-1.11
2018-12-25T00:31:09.614Z,-1.1
2018-12-25T00:32:09.601Z,-1.1
2018-12-25T00:33:09.662Z,-1.09
2018-12-25T00:34:09.827Z,-1.1
2018-12-25T00:35:09.579Z,-1.11
2018-12-25T00:36:09.568Z,-1.24
2018-12-25T00:37:10.029Z,-1.23
2018-12-25T00:38:09.563Z,-1.23
2018-12-25T00:39:09.552Z,-1.22
2018-12-25T00:40:09.737Z,-1.2
2018-12-25T00:41:09.689Z,-1.24
2018-12-25T00:42:09.572Z,-1.28
2018-12-25T00:43:09.809Z,-1.29
2018-12-25T00:44:09.779Z,-1.32
2018-12-25T00:45:09.710Z,-1.33
2018-12-25T00:46:09.595Z,-1.31
2018-12-25T00:47:09.530Z,-1.32
2018-12-25T00:48:10.068Z,-1.35
2018-12-25T00:49:15.248Z,-1.31
2018-12-25T00:50:09.746Z,-1.34
2018-12-25T00:51:09.520Z,-1.35
2018-12-25T00:52:09.387Z,-1.37
2018-12-25T00:53:09.702Z,-1.35
2018-12-25T00:54:09.585Z,-1.34
2018-12-25T00:55:09.811Z,-1.4
2018-12-25T00:56:09.666Z,-1.42
2018-12-25T00:57:09.913Z,-1.4
2018-12-25T00:58:09.841Z,-1.43
2018-12-25T00:59:09.592Z,-1.43
2018-12-25T01:00:10.321Z,-1.42
2018-12-25T01:01:09.714Z,-1.44
2018-12-25T01:02:09.768Z,-1.34
2018-12-25T01:03:09.729Z,-1.35
2018-12-25T01:04:09.955Z,-1.38
2018-12-25T01:05:09.471Z,-1.35
2018-12-25T01:06:09.483Z,-1.43
2018-12-25T01:07:10.114Z,-1.42
2018-12-25T01:08:09.751Z,-1.41
2018-12-25T01:09:09.494Z,-1.34
2018-12-25T01:10:09.510Z,-1.33
2018-12-25T01:11:09.616Z,-1.46
2018-12-25T01:12:09.488Z,-1.44
2018-12-25T01:13:09.489Z,-1.42
2018-12-25T01:14:09.957Z,-1.52
2018-12-25T01:15:09.906Z,-1.51
2018-12-25T01:16:09.503Z,-1.55
2018-12-25T01:17:09.464Z,-1.49
2018-12-25T01:18:09.525Z,-1.53
2018-12-25T01:19:09.862Z,-1.49
2018-12-25T01:20:09.634Z,-1.45
2018-12-25T01:21:09.480Z,-1.48
2018-12-25T01:22:09.719Z,-1.55
2018-12-25T01:23:10.303Z,-1.58
2018-12-25T01:24:09.668Z,-1.58
2018-12-25T01:25:09.509Z,-1.52
2018-12-25T01:26:09.518Z,-1.52
2018-12-25T01:27:09.488Z,-1.56
2018-12-25T01:28:09.771Z,-1.61
2018-12-25T01:29:09.696Z,-1.6
2018-12-25T01:30:09.750Z,-1.7
2018-12-25T01:31:09.791Z,-1.67
2018-12-25T01:32:09.712Z,-1.53
2018-12-25T01:33:09.631Z,-1.47
2018-12-25T01:34:09.927Z,-1.5
2018-12-25T01:35:10.278Z,-1.54
2018-12-25T01:36:09.449Z,-1.53
2018-12-25T01:37:09.804Z,-1.59
2018-12-25T01:38:09.627Z,-1.52
2018-12-25T01:39:09.443Z,-1.47
2018-12-25T01:40:09.434Z,-1.51
2018-12-25T01:41:09.460Z,-1.54
2018-12-25T01:42:09.674Z,-1.43
2018-12-25T01:43:09.577Z,-1.42
2018-12-25T01:44:09.481Z,-1.45
2018-12-25T01:45:09.503Z,-1.54
2018-12-25T01:46:09.467Z,-1.54
2018-12-25T01:47:09.426Z,-1.59
2018-12-25T01:48:09.439Z,-1.58
2018-12-25T01:49:09.456Z,-1.5
2018-12-25T01:50:09.482Z,-1.46
2018-12-25T01:51:09.520Z,-1.49
2018-12-25T01:52:09.562Z,-1.49
2018-12-25T01:53:09.447Z,-1.51
2018-12-25T01:54:09.531Z,-1.48
2018-12-25T01:55:09.474Z,-1.48
2018-12-25T01:56:09.512Z,-1.5
2018-12-25T01:57:09.499Z,-1.5
2018-12-25T01:58:09.579Z,-1.48
2018-12-25T01:59:09.569Z,-1.49
2018-12-25T02:00:09.633Z,-1.45
2018-12-25T02:01:09.479Z,-1.48
2018-12-25T02:02:09.794Z,-1.51
2018-12-25T02:03:09.718Z,-1.5
2018-12-25T02:04:09.533Z,-1.47
2018-12-25T02:05:09.524Z,-1.53
2018-12-25T02:06:09.449Z,-1.54
2018-12-25T02:07:09.782Z,-1.6
2018-12-25T02:08:09.670Z,-1.6
2018-12-25T02:09:09.581Z,-1.61
2018-12-25T02:10:09.733Z,-1.62
2018-12-25T02:11:09.838Z,-1.64
2018-12-25T02:12:09.726Z,-1.63
2018-12-25T02:13:09.619Z,-1.62
2018-12-25T02:14:09.575Z,-1.59
2018-12-25T02:15:09.560Z,-1.59
2018-12-25T02:16:09.653Z,-1.62
2018-12-25T02:17:09.505Z,-1.6
2018-12-25T02:18:09.465Z,-1.59
2018-12-25T02:19:10.108Z,-1.65
2018-12-25T02:20:09.801Z,-1.81
2018-12-25T02:21:09.556Z,-1.79
2018-12-25T02:22:09.559Z,-1.75
2018-12-25T02:23:09.448Z,-1.74
2018-12-25T02:24:09.523Z,-1.78
2018-12-25T02:25:09.477Z,-1.74
2018-12-25T02:26:09.451Z,-1.77
2018-12-25T02:27:09.917Z,-1.79
2018-12-25T02:28:09.601Z,-1.79
2018-12-25T02:29:09.828Z,-1.83
2018-12-25T02:30:09.862Z,-1.82
2018-12-25T02:31:09.503Z,-1.85
2018-12-25T02:32:09.654Z,-1.82
2018-12-25T02:33:09.600Z,-1.82
2018-12-25T02:34:10.190Z,-1.75
2018-12-25T02:35:09.655Z,-1.88
2018-12-25T02:36:09.473Z,-1.99
2018-12-25T02:37:09.898Z,-1.98
2018-12-25T02:38:09.430Z,-1.93
2018-12-25T02:39:09.681Z,-1.97
2018-12-25T02:40:09.423Z,-1.95
2018-12-25T02:41:09.336Z,-1.95
2018-12-25T02:42:09.459Z,-1.95
2018-12-25T02:43:09.825Z,-1.94
2018-12-25T02:44:09.717Z,-1.94
2018-12-25T02:45:09.459Z,-1.97
2018-12-25T02:46:09.763Z,-2.01
2018-12-25T02:47:09.648Z,-1.96
2018-12-25T02:48:09.453Z,-1.98
2018-12-25T02:49:09.522Z,-1.98
2018-12-25T02:50:09.755Z,-2.01
2018-12-25T02:51:09.907Z,-2.02
2018-12-25T02:52:09.338Z,-2.01
2018-12-25T02:53:09.661Z,-2.05
2018-12-25T02:54:09.508Z,-2.12
2018-12-25T02:55:09.492Z,-2.16
2018-12-25T02:56:09.618Z,-2.15
2018-12-25T02:57:09.747Z,-2.17
2018-12-25T02:58:09.404Z,-2.21
2018-12-25T02:59:09.444Z,-2.24
2018-12-25T03:00:10.403Z,-2.22
2018-12-25T03:01:09.637Z,-2.22
2018-12-25T03:02:09.883Z,-2.26
2018-12-25T03:03:09.373Z,-2.24
2018-12-25T03:04:09.544Z,-2.25
2018-12-25T03:05:09.339Z,-2.23
2018-12-25T03:06:09.603Z,-2.26
2018-12-25T03:07:09.673Z,-2.29
2018-12-25T03:08:09.381Z,-2.28
2018-12-25T03:09:09.427Z,-2.29
2018-12-25T03:10:09.642Z,-2.28
2018-12-25T03:11:09.331Z,-2.24
2018-12-25T03:12:09.347Z,-2.25
2018-12-25T03:13:09.379Z,-2.27
2018-12-25T03:14:09.714Z,-2.29
2018-12-25T03:15:09.380Z,-2.27
2018-12-25T03:16:09.571Z,-2.34
2018-12-25T03:17:09.342Z,-2.37
2018-12-25T03:18:09.457Z,-2.35
2018-12-25T03:19:09.636Z,-2.34
2018-12-25T03:20:09.390Z,-2.35
2018-12-25T03:21:09.307Z,-2.36
2018-12-25T03:22:09.355Z,-2.31
2018-12-25T03:23:09.590Z,-2.34
2018-12-25T03:24:09.389Z,-2.4
2018-12-25T03:25:09.285Z,-2.39
2018-12-25T03:26:09.284Z,-2.37
2018-12-25T03:27:09.331Z,-2.36
2018-12-25T03:28:09.282Z,-2.38
2018-12-25T03:29:09.284Z,-2.38
2018-12-25T03:30:09.359Z,-2.4
2018-12-25T03:31:09.330Z,-2.43
2018-12-25T03:32:09.347Z,-2.44
2018-12-25T03:33:09.361Z,-2.52
2018-12-25T03:34:09.304Z,-2.52
2018-12-25T03:35:09.420Z,-2.51
2018-12-25T03:36:09.272Z,-2.57
2018-12-25T03:37:09.317Z,-2.54
2018-12-25T03:38:09.230Z,-2.62
2018-12-25T03:39:09.288Z,-2.61
2018-12-25T03:40:09.286Z,-2.66
2018-12-25T03:41:09.700Z,-2.67
2018-12-25T03:42:10.623Z,-2.75
2018-12-25T03:43:09.623Z,-2.71
2018-12-25T03:44:09.542Z,-2.67
2018-12-25T03:45:09.572Z,-2.69
2018-12-25T03:46:09.549Z,-2.67
2018-12-25T03:47:09.716Z,-2.66
2018-12-25T03:48:09.662Z,-2.69
2018-12-25T03:49:09.742Z,-2.63
2018-12-25T03:50:11.559Z,-2.63
2018-12-25T03:51:09.499Z,-2.65
2018-12-25T03:52:09.247Z,-2.65
2018-12-25T03:53:09.848Z,-2.66
2018-12-25T03:54:09.751Z,-2.69
2018-12-25T03:55:09.236Z,-2.68
2018-12-25T03:56:09.446Z,-2.66
2018-12-25T03:57:09.381Z,-2.68
2018-12-25T03:58:09.415Z,-2.7
2018-12-25T03:59:09.252Z,-2.66
2018-12-25T04:00:09.249Z,-2.66
2018-12-25T04:01:09.246Z,-2.58
2018-12-25T04:02:09.617Z,-2.57
2018-12-25T04:03:09.632Z,-2.54
2018-12-25T04:04:09.266Z,-2.59
2018-12-25T04:05:09.271Z,-2.61
2018-12-25T04:06:09.831Z,-2.65
2018-12-25T04:07:09.710Z,-2.62
2018-12-25T04:08:09.468Z,-2.62
2018-12-25T04:09:09.320Z,-2.56
2018-12-25T04:10:09.598Z,-2.59
2018-12-25T04:11:09.388Z,-2.57
2018-12-25T04:12:09.330Z,-2.53
2018-12-25T04:13:09.402Z,-2.58
2018-12-25T04:14:10.389Z,-2.57
2018-12-25T04:15:09.357Z,-2.55
2018-12-25T04:16:09.605Z,-2.45
2018-12-25T04:17:09.245Z,-2.5
2018-12-25T04:18:09.571Z,-2.52
2018-12-25T04:19:09.309Z,-2.5
2018-12-25T04:20:09.365Z,-2.51
2018-12-25T04:21:09.460Z,-2.47
2018-12-25T04:22:09.394Z,-2.47
2018-12-25T04:23:09.318Z,-2.47
2018-12-25T04:24:09.643Z,-2.54
2018-12-25T04:25:09.453Z,-2.49
2018-12-25T04:26:09.226Z,-2.48
2018-12-25T04:27:09.201Z,-2.52
2018-12-25T04:28:09.372Z,-2.56
2018-12-25T04:29:09.488Z,-2.52
2018-12-25T04:30:09.361Z,-2.52
2018-12-25T04:31:09.532Z,-2.59
2018-12-25T04:32:09.433Z,-2.6
2018-12-25T04:33:09.178Z,-2.64
2018-12-25T04:34:09.313Z,-2.71
2018-12-25T04:35:09.467Z,-2.72
2018-12-25T04:36:09.568Z,-2.75
2018-12-25T04:37:09.720Z,-2.76
2018-12-25T04:38:09.895Z,-2.77
2018-12-25T04:39:09.398Z,-2.77
2018-12-25T04:40:10.440Z,-2.8
2018-12-25T04:41:09.405Z,-2.79
2018-12-25T04:42:09.304Z,-2.81
2018-12-25T04:43:09.188Z,-2.83
2018-12-25T04:44:09.225Z,-2.86
2018-12-25T04:45:09.357Z,-2.83
2018-12-25T04:46:09.413Z,-2.89
2018-12-25T04:47:09.388Z,-2.89
2018-12-25T04:48:09.460Z,-2.9
2018-12-25T04:49:09.588Z,-2.87
2018-12-25T04:50:09.982Z,-2.86
2018-12-25T04:51:09.385Z,-2.88
2018-12-25T04:52:09.459Z,-2.84
2018-12-25T04:53:09.175Z,-2.86
2018-12-25T04:54:09.452Z,-2.86
2018-12-25T04:55:09.396Z,-2.82
2018-12-25T04:56:09.674Z,-2.82
2018-12-25T04:57:09.249Z,-2.81
2018-12-25T04:58:09.405Z,-2.83
2018-12-25T04:59:09.416Z,-2.85
2018-12-25T05:00:09.256Z,-2.87
2018-12-25T05:01:09.382Z,-2.84
2018-12-25T05:02:09.185Z,-2.81
2018-12-25T05:03:09.155Z,-2.82
2018-12-25T05:04:10.273Z,-2.83
2018-12-25T05:05:09.197Z,-2.89
2018-12-25T05:06:09.378Z,-2.87
2018-12-25T05:07:09.238Z,-2.88
2018-12-25T05:08:09.151Z,-2.88
2018-12-25T05:09:09.184Z,-2.9
2018-12-25T05:10:09.174Z,-2.92
2018-12-25T05:11:09.161Z,-2.92
2018-12-25T05:12:09.253Z,-2.9
2018-12-25T05:13:09.496Z,-2.9
2018-12-25T05:14:09.147Z,-2.87
2018-12-25T05:15:09.198Z,-2.91
2018-12-25T05:16:09.146Z,-2.92
2018-12-25T05:17:09.189Z,-2.91
2018-12-25T05:18:09.343Z,-2.92
2018-12-25T05:19:09.100Z,-2.99
2018-12-25T05:20:09.238Z,-2.99
2018-12-25T05:21:09.268Z,-2.98
2018-12-25T05:22:09.172Z,-3
2018-12-25T05:23:09.231Z,-3
2018-12-25T05:24:09.454Z,-2.98
2018-12-25T05:25:09.365Z,-3.02
2018-12-25T05:26:09.310Z,-2.99
2018-12-25T05:27:09.750Z,-2.97
2018-12-25T05:28:09.187Z,-2.95
2018-12-25T05:29:09.187Z,-2.97
2018-12-25T05:30:09.274Z,-2.97
2018-12-25T05:31:09.137Z,-3.01
2018-12-25T05:32:09.733Z,-3.02
2018-12-25T05:33:09.084Z,-3.01
2018-12-25T05:34:09.658Z,-3.02
2018-12-25T05:35:09.172Z,-3.02
2018-12-25T05:36:09.518Z,-3.02
2018-12-25T05:37:09.374Z,-3.02
2018-12-25T05:38:09.143Z,-3.03
2018-12-25T05:39:09.301Z,-2.98
2018-12-25T05:40:10.180Z,-3.02
2018-12-25T05:41:09.263Z,-2.98
2018-12-25T05:42:09.627Z,-3.04
2018-12-25T05:43:09.227Z,-2.99
2018-12-25T05:44:09.389Z,-3.04
2018-12-25T05:45:09.204Z,-3.04
2018-12-25T05:46:10.342Z,-3.06
2018-12-25T05:47:09.251Z,-3.07
2018-12-25T05:48:09.263Z,-3.08
2018-12-25T05:49:09.085Z,-3.1
2018-12-25T05:50:09.121Z,-3.11
2018-12-25T05:51:09.216Z,-3.18
2018-12-25T05:52:09.182Z,-3.25
2018-12-25T05:53:09.057Z,-3.25
2018-12-25T05:54:09.254Z,-3.26
2018-12-25T05:55:09.158Z,-3.26
2018-12-25T05:56:09.536Z,-3.32
2018-12-25T05:57:13.113Z,-3.31
2018-12-25T05:58:09.347Z,-3.36
2018-12-25T05:59:09.290Z,-3.4
2018-12-25T06:00:09.361Z,-3.42
2018-12-25T06:01:09.167Z,-3.37
2018-12-25T06:02:09.227Z,-3.37
2018-12-25T06:03:09.439Z,-3.38
2018-12-25T06:04:09.221Z,-3.36
2018-12-25T06:05:09.072Z,-3.42
2018-12-25T06:06:09.068Z,-3.41
2018-12-25T06:07:09.242Z,-3.41
2018-12-25T06:08:09.266Z,-3.38
2018-12-25T06:09:09.192Z,-3.41
2018-12-25T06:10:09.093Z,-3.38
2018-12-25T06:11:09.308Z,-3.35
2018-12-25T06:12:09.297Z,-3.37
2018-12-25T06:13:09.467Z,-3.38
2018-12-25T06:14:09.242Z,-3.36
2018-12-25T06:15:09.133Z,-3.38
2018-12-25T06:16:09.451Z,-3.43
2018-12-25T06:17:09.483Z,-3.47
2018-12-25T06:18:09.444Z,-3.46
2018-12-25T06:19:09.140Z,-3.46
2018-12-25T06:20:09.321Z,-3.5
2018-12-25T06:21:09.362Z,-3.49
2018-12-25T06:22:09.154Z,-3.53
2018-12-25T06:23:09.225Z,-3.55
2018-12-25T06:24:09.915Z,-3.57
2018-12-25T06:25:09.195Z,-3.58
2018-12-25T06:26:09.210Z,-3.61
2018-12-25T06:27:09.248Z,-3.67
2018-12-25T06:28:09.399Z,-3.63
2018-12-25T06:29:09.217Z,-3.65
2018-12-25T06:30:09.086Z,-3.62
2018-12-25T06:31:09.111Z,-3.62
2018-12-25T06:32:09.888Z,-3.63
2018-12-25T06:33:09.102Z,-3.63
2018-12-25T06:34:09.119Z,-3.61
2018-12-25T06:35:09.228Z,-3.63
2018-12-25T06:36:09.723Z,-3.61
2018-12-25T06:37:09.209Z,-3.63
2018-12-25T06:38:09.441Z,-3.58
2018-12-25T06:39:08.798Z,-3.57
2018-12-25T06:40:09.566Z,-3.53
2018-12-25T06:41:09.100Z,-3.54
2018-12-25T06:42:09.235Z,-3.56
2018-12-25T06:43:09.613Z,-3.56
2018-12-25T06:44:09.225Z,-3.53
2018-12-25T06:45:09.077Z,-3.54
2018-12-25T06:46:09.116Z,-3.49
2018-12-25T06:47:09.094Z,-3.47
2018-12-25T06:48:09.078Z,-3.48
2018-12-25T06:49:09.086Z,-3.52
2018-12-25T06:50:09.046Z,-3.52
2018-12-25T06:51:09.137Z,-3.52
2018-12-25T06:52:09.137Z,-3.54
2018-12-25T06:53:09.064Z,-3.54
2018-12-25T06:54:09.119Z,-3.56
2018-12-25T06:55:09.203Z,-3.56
2018-12-25T06:56:09.098Z,-3.56
2018-12-25T06:57:09.140Z,-3.53
2018-12-25T06:58:09.080Z,-3.52
2018-12-25T06:59:09.121Z,-3.49
2018-12-25T07:00:09.401Z,-3.48
2018-12-25T07:01:09.135Z,-3.49
2018-12-25T07:02:08.985Z,-3.49
2018-12-25T07:03:09.301Z,-3.49
2018-12-25T07:04:09.093Z,-3.52
2018-12-25T07:05:09.405Z,-3.49
2018-12-25T07:06:09.077Z,-3.48
2018-12-25T07:07:09.407Z,-3.46
2018-12-25T07:08:09.355Z,-3.44
2018-12-25T07:09:09.035Z,-3.42
2018-12-25T07:10:09.256Z,-3.42
2018-12-25T07:11:09.005Z,-3.41
2018-12-25T07:12:09.072Z,-3.42
2018-12-25T07:13:09.068Z,-3.4
2018-12-25T07:14:09.177Z,-3.36
2018-12-25T07:15:09.747Z,-3.43
2018-12-25T07:16:09.032Z,-3.45
2018-12-25T07:17:09.053Z,-3.5
2018-12-25T07:18:09.462Z,-3.48
2018-12-25T07:19:09.158Z,-3.52
2018-12-25T07:20:09.431Z,-3.49
2018-12-25T07:21:12.656Z,-3.48
2018-12-25T07:22:09.154Z,-3.48
2018-12-25T07:23:09.190Z,-3.46
2018-12-25T07:24:09.916Z,-3.49
2018-12-25T07:25:09.378Z,-3.47
2018-12-25T07:26:09.023Z,-3.46
2018-12-25T07:27:09.203Z,-3.47
2018-12-25T07:28:09.133Z,-3.47
2018-12-25T07:29:09.060Z,-3.46
2018-12-25T07:30:09.375Z,-3.45
2018-12-25T07:31:09.147Z,-3.48
2018-12-25T07:32:09.686Z,-3.49
2018-12-25T07:33:08.990Z,-3.52
2018-12-25T07:34:09.354Z,-3.51
2018-12-25T07:35:09.132Z,-3.53
2018-12-25T07:36:09.724Z,-3.57
2018-12-25T07:37:09.305Z,-3.55
2018-12-25T07:38:09.263Z,-3.57
2018-12-25T07:39:09.156Z,-3.58
2018-12-25T07:40:09.389Z,-3.59
2018-12-25T07:41:09.066Z,-3.55
2018-12-25T07:42:09.087Z,-3.56
2018-12-25T07:43:09.163Z,-3.55
2018-12-25T07:44:09.064Z,-3.56
2018-12-25T07:45:09.071Z,-3.59
2018-12-25T07:46:09.079Z,-3.62
2018-12-25T07:47:11.461Z,-3.6
2018-12-25T07:48:09.079Z,-3.59
2018-12-25T07:49:09.065Z,-3.63
2018-12-25T07:50:09.202Z,-3.62
2018-12-25T07:51:09.074Z,-3.6
2018-12-25T07:52:08.936Z,-3.6
2018-12-25T07:53:08.914Z,-3.59
2018-12-25T07:54:09.000Z,-3.59
2018-12-25T07:55:08.940Z,-3.58
2018-12-25T07:56:09.231Z,-3.57
2018-12-25T07:57:08.912Z,-3.62
2018-12-25T07:58:09.241Z,-3.57
2018-12-25T07:59:09.022Z,-3.57
2018-12-25T08:00:09.059Z,-3.55
2018-12-25T08:01:09.045Z,-3.51
2018-12-25T08:02:09.015Z,-3.44
2018-12-25T08:03:09.084Z,-3.49
2018-12-25T08:04:08.925Z,-3.5
2018-12-25T08:05:09.132Z,-3.5
2018-12-25T08:06:09.107Z,-3.5
2018-12-25T08:07:09.131Z,-3.48
2018-12-25T08:08:09.092Z,-3.47
2018-12-25T08:09:09.057Z,-3.46
2018-12-25T08:10:08.920Z,-3.43
2018-12-25T08:11:09.371Z,-3.43
2018-12-25T08:12:09.119Z,-3.42
2018-12-25T08:13:09.228Z,-3.38
2018-12-25T08:14:09.097Z,-3.39
2018-12-25T08:15:08.901Z,-3.38
2018-12-25T08:16:09.283Z,-3.33
2018-12-25T08:17:09.053Z,-3.28
2018-12-25T08:18:09.195Z,-3.29
2018-12-25T08:19:09.176Z,-3.24
2018-12-25T08:20:09.106Z,-3.23
2018-12-25T08:21:09.508Z,-3.22
2018-12-25T08:22:08.950Z,-3.26
2018-12-25T08:23:08.932Z,-3.16
2018-12-25T08:24:08.851Z,-3.18
2018-12-25T08:25:08.854Z,-3.18
2018-12-25T08:26:09.064Z,-3.11
2018-12-25T08:27:08.882Z,-3.07
2018-12-25T08:28:08.880Z,-3.04
2018-12-25T08:29:09.148Z,-2.99
2018-12-25T08:30:09.046Z,-2.96
2018-12-25T08:31:09.048Z,-2.93
2018-12-25T08:32:08.884Z,-2.85
2018-12-25T08:33:08.858Z,-2.8
2018-12-25T08:34:08.886Z,-2.77
2018-12-25T08:35:08.887Z,-2.75
2018-12-25T08:36:08.876Z,-2.77
2018-12-25T08:37:09.091Z,-2.74
2018-12-25T08:38:09.028Z,-2.74
2018-12-25T08:39:09.228Z,-2.68
2018-12-25T08:40:09.075Z,-2.69
2018-12-25T08:41:09.096Z,-2.63
2018-12-25T08:42:09.253Z,-2.6
2018-12-25T08:43:08.823Z,-2.63
2018-12-25T08:44:08.899Z,-2.62
2018-12-25T08:45:09.685Z,-2.62
2018-12-25T08:46:08.862Z,-2.57
2018-12-25T08:47:08.847Z,-2.52
2018-12-25T08:48:09.558Z,-2.44
2018-12-25T08:49:09.015Z,-2.37
2018-12-25T08:50:09.107Z,-2.28
2018-12-25T08:51:09.285Z,-2.3
2018-12-25T08:52:09.001Z,-2.31
2018-12-25T08:53:09.178Z,-2.39
2018-12-25T08:54:09.271Z,-2.37
2018-12-25T08:55:09.085Z,-2.36
2018-12-25T08:56:09.177Z,-2.38
2018-12-25T08:57:09.070Z,-2.32
2018-12-25T08:58:08.836Z,-2.29
2018-12-25T08:59:08.826Z,-2.32
2018-12-25T09:00:09.629Z,-2.28
2018-12-25T09:01:09.164Z,-2.29
2018-12-25T09:02:08.905Z,-2.19
2018-12-25T09:03:08.850Z,-2.08
2018-12-25T09:04:08.893Z,-2.09
2018-12-25T09:05:09.266Z,-2.12
2018-12-25T09:06:09.648Z,-2.12
2018-12-25T09:07:09.057Z,-2.11
2018-12-25T09:08:08.855Z,-2.07
2018-12-25T09:09:09.165Z,-2.08
2018-12-25T09:10:08.870Z,-2.07
2018-12-25T09:11:08.795Z,-2.09
2018-12-25T09:12:09.161Z,-1.97
2018-12-25T09:13:09.198Z,-2.04
2018-12-25T09:14:08.867Z,-1.93
2018-12-25T09:15:08.906Z,-2.01
2018-12-25T09:16:09.094Z,-2
2018-12-25T09:17:09.341Z,-1.88
2018-12-25T09:18:08.824Z,-1.94
2018-12-25T09:19:08.988Z,-1.89
2018-12-25T09:20:09.215Z,-1.96
2018-12-25T09:21:08.852Z,-1.97
2018-12-25T09:22:08.806Z,-1.82
2018-12-25T09:23:08.825Z,-1.88
2018-12-25T09:24:08.900Z,-1.87
2018-12-25T09:25:11.026Z,-1.86
2018-12-25T09:26:09.115Z,-1.87
2018-12-25T09:27:09.025Z,-1.79
2018-12-25T09:28:09.174Z,-1.87
2018-12-25T09:29:09.147Z,-1.89
2018-12-25T09:30:09.139Z,-1.79
2018-12-25T09:31:08.868Z,-1.81
2018-12-25T09:32:09.384Z,-1.8
2018-12-25T09:33:09.135Z,-1.78
2018-12-25T09:34:08.819Z,-1.76
2018-12-25T09:35:08.793Z,-1.75
2018-12-25T09:36:08.781Z,-1.73
2018-12-25T09:37:08.769Z,-1.72
2018-12-25T09:38:08.813Z,-1.65
2018-12-25T09:39:09.077Z,-1.63
2018-12-25T09:40:08.586Z,-1.56
2018-12-25T09:41:08.798Z,-1.53
2018-12-25T09:42:09.535Z,-1.52
2018-12-25T09:43:08.763Z,-1.51
2018-12-25T09:44:08.838Z,-1.52
2018-12-25T09:45:08.774Z,-1.5
2018-12-25T09:46:08.943Z,-1.44
2018-12-25T09:47:08.775Z,-1.5
2018-12-25T09:48:13.871Z,-1.48
2018-12-25T09:49:09.168Z,-1.49
2018-12-25T09:50:09.370Z,-1.44
2018-12-25T09:51:09.166Z,-1.38
2018-12-25T09:52:09.024Z,-1.41
2018-12-25T09:53:08.744Z,-1.4
2018-12-25T09:54:08.788Z,-1.48
2018-12-25T09:55:09.088Z,-1.47
2018-12-25T09:57:08.748Z,-1.42
2018-12-25T09:58:10.269Z,-1.4
2018-12-25T09:59:08.894Z,-1.37
2018-12-25T10:00:08.855Z,-1.33
2018-12-25T10:01:08.746Z,-1.29
2018-12-25T10:02:08.731Z,-1.27
2018-12-25T10:03:08.741Z,-1.27
2018-12-25T10:04:08.718Z,-1.2
2018-12-25T10:05:09.078Z,-1.16
2018-12-25T10:06:08.715Z,-1.18
2018-12-25T10:07:08.701Z,-1.15
2018-12-25T10:08:11.960Z,-1.15
2018-12-25T10:09:08.784Z,-1.19
2018-12-25T10:10:08.746Z,-1.14
2018-12-25T10:11:09.070Z,-1.13
2018-12-25T10:12:08.773Z,-1.12
2018-12-25T10:13:08.799Z,-1.08
2018-12-25T10:14:08.877Z,-1.09
2018-12-25T10:15:09.207Z,-1.07
2018-12-25T10:16:08.732Z,-0.98
2018-12-25T10:17:09.082Z,-1
2018-12-25T10:18:09.111Z,-0.99
2018-12-25T10:19:10.096Z,-0.99
2018-12-25T10:20:08.808Z,-0.94
2018-12-25T10:21:08.942Z,-0.94
2018-12-25T10:22:08.815Z,-0.96
2018-12-25T10:23:08.731Z,-0.98
2018-12-25T10:24:09.095Z,-0.92
2018-12-25T10:25:09.030Z,-0.89
2018-12-25T10:26:12.757Z,-0.94
2018-12-25T10:27:09.193Z,-0.9
2018-12-25T10:28:08.852Z,-1.02
2018-12-25T10:29:09.030Z,-0.96
2018-12-25T10:30:08.715Z,-0.98
2018-12-25T10:31:08.927Z,-0.98
2018-12-25T10:32:09.127Z,-0.95
2018-12-25T10:33:08.832Z,-0.87
2018-12-25T10:34:08.687Z,-0.8
2018-12-25T10:35:08.679Z,-0.67
2018-12-25T10:36:08.652Z,-0.73
2018-12-25T10:37:08.855Z,-0.66
2018-12-25T10:38:08.684Z,-0.72
2018-12-25T10:39:09.204Z,-0.69
2018-12-25T10:40:09.072Z,-0.64
2018-12-25T10:41:08.780Z,-0.59
2018-12-25T10:42:08.832Z,-0.59
2018-12-25T10:43:08.842Z,-0.57
2018-12-25T10:44:08.827Z,-0.6
2018-12-25T10:45:08.850Z,-0.57
2018-12-25T10:46:08.691Z,-0.54
2018-12-25T10:47:08.662Z,-0.49
2018-12-25T10:48:08.840Z,-0.45
2018-12-25T10:49:08.996Z,-0.36
2018-12-25T10:50:08.726Z,-0.37
2018-12-25T10:51:08.902Z,-0.35
2018-12-25T10:52:12.222Z,-0.3
2018-12-25T10:53:08.694Z,-0.31
2018-12-25T10:54:08.717Z,-0.25
2018-12-25T10:55:08.775Z,-0.3
2018-12-25T10:56:08.805Z,-0.31
2018-12-25T10:57:11.606Z,-0.35
2018-12-25T10:58:09.139Z,-0.27
2018-12-25T10:59:09.444Z,-0.29
2018-12-25T11:00:08.852Z,-0.26
2018-12-25T11:01:08.787Z,-0.2
2018-12-25T11:02:08.757Z,-0.13
2018-12-25T11:03:08.902Z,-0.06
2018-12-25T11:04:09.862Z,-0.02
2018-12-25T11:06:14.212Z,0.02
2018-12-25T11:07:09.066Z,0.08
2018-12-25T11:08:08.805Z,0.16
2018-12-25T11:09:08.722Z,0.25
2018-12-25T11:10:08.675Z,0.29
2018-12-25T11:11:08.772Z,0.22
2018-12-25T11:12:09.476Z,0.24
2018-12-25T11:13:08.765Z,0.21
2018-12-25T11:14:08.690Z,0.13
2018-12-25T11:15:08.710Z,0.15
2018-12-25T11:16:09.082Z,0.23
2018-12-25T11:17:09.640Z,0.32
2018-12-25T11:18:08.767Z,0.3
2018-12-25T11:19:08.626Z,0.33
2018-12-25T11:20:12.020Z,0.28
2018-12-25T11:21:08.655Z,0.36
2018-12-25T11:22:09.464Z,0.37
2018-12-25T11:23:08.767Z,0.28
2018-12-25T11:24:08.951Z,0.33
2018-12-25T11:25:08.879Z,0.39
2018-12-25T11:26:08.875Z,0.4
2018-12-25T11:27:09.448Z,0.2
2018-12-25T11:28:08.658Z,0.02
2018-12-25T11:29:09.431Z,0.17
2018-12-25T11:30:08.752Z,0.17
2018-12-25T11:31:08.628Z,0.17
2018-12-25T11:32:08.771Z,0.19
2018-12-25T11:33:09.423Z,0.22
2018-12-25T11:34:09.059Z,0.16
2018-12-25T11:35:08.801Z,0.13
2018-12-25T11:36:08.645Z,0.13
2018-12-25T11:37:08.649Z,0.05
2018-12-25T11:38:08.668Z,0.05
2018-12-25T11:39:08.616Z,0.03
2018-12-25T11:40:08.844Z,0.12
2018-12-25T11:41:08.871Z,0.13
2018-12-25T11:42:08.637Z,0.19
2018-12-25T11:43:08.563Z,0.29
2018-12-25T11:44:08.624Z,0.31
2018-12-25T11:45:08.751Z,0.33
2018-12-25T11:46:08.651Z,0.32
2018-12-25T11:47:08.781Z,0.33
2018-12-25T11:48:08.615Z,0.27
2018-12-25T11:49:08.676Z,0.31
2018-12-25T11:50:08.656Z,0.33
2018-12-25T11:51:08.658Z,0.35
2018-12-25T11:52:08.592Z,0.27
2018-12-25T11:53:08.562Z,0.34
2018-12-25T11:54:08.591Z,0.33
2018-12-25T11:55:08.669Z,0.37
2018-12-25T11:56:08.547Z,0.41
2018-12-25T11:57:08.664Z,0.45
2018-12-25T11:58:08.766Z,0.42
2018-12-25T11:59:08.623Z,0.41
2018-12-25T12:00:08.747Z,0.26
2018-12-25T12:01:08.690Z,0.35
2018-12-25T12:02:17.537Z,0.51
2018-12-25T12:03:09.376Z,0.31
2018-12-25T12:04:15.758Z,0.11
2018-12-25T12:05:11.577Z,0.36
2018-12-25T12:06:10.064Z,0.49
2018-12-25T12:07:11.550Z,0.39
2018-12-25T12:08:08.830Z,0.4
2018-12-25T12:09:09.600Z,0.47
2018-12-25T12:10:11.759Z,0.41
2018-12-25T12:11:09.447Z,0.47
2018-12-25T12:12:08.546Z,0.6
2018-12-25T12:13:08.687Z,0.52
2018-12-25T12:14:08.533Z,0.64
2018-12-25T12:15:08.609Z,0.63
2018-12-25T12:16:08.535Z,0.71
2018-12-25T12:17:08.507Z,0.73
2018-12-25T12:18:08.724Z,0.63
2018-12-25T12:19:08.698Z,0.64
2018-12-25T12:20:08.886Z,0.67
2018-12-25T12:21:08.801Z,0.74
2018-12-25T12:22:09.051Z,0.75
2018-12-25T12:23:09.365Z,0.79
2018-12-25T12:24:08.761Z,0.7
2018-12-25T12:25:08.776Z,0.76
2018-12-25T12:26:08.741Z,0.66
2018-12-25T12:27:09.054Z,0.64
2018-12-25T12:28:08.747Z,0.73
2018-12-25T12:29:08.581Z,0.71
2018-12-25T12:30:08.975Z,0.42
2018-12-25T12:31:08.672Z,0.5
2018-12-25T12:32:09.655Z,0.54
2018-12-25T12:33:11.967Z,0.58
2018-12-25T12:34:13.402Z,0.54
2018-12-25T12:35:10.308Z,0.62
2018-12-25T12:36:14.676Z,0.59
2018-12-25T12:39:11.232Z,0.3
2018-12-25T12:40:09.409Z,0.41
2018-12-25T12:41:10.178Z,0.54
2018-12-25T12:42:09.348Z,0.5
2018-12-25T12:44:08.661Z,0.45
2018-12-25T12:45:10.510Z,0.38
2018-12-25T12:46:09.924Z,0.27
2018-12-25T12:47:17.525Z,0.32
2018-12-25T12:48:13.639Z,0.27
2018-12-25T12:49:33.783Z,0.37
2018-12-25T12:50:11.563Z,0.43
2018-12-25T12:51:12.233Z,0.52
2018-12-25T12:52:09.222Z,0.31
2018-12-25T12:53:11.100Z,0.54
2018-12-25T12:54:09.405Z,0.54
2018-12-25T12:55:14.371Z,0.51
2018-12-25T12:56:23.152Z,0.54
2018-12-25T12:57:15.022Z,0.44
2018-12-25T12:58:14.670Z,0.49
2018-12-25T12:59:15.166Z,0.48
2018-12-25T13:00:17.138Z,0.35
2018-12-25T13:01:15.567Z,0.41
2018-12-25T13:02:14.345Z,0.49
2018-12-25T13:03:10.723Z,0.53
2018-12-25T13:04:08.725Z,0.57